sensor_id;sensor_type;location;lat;lon;timestamp;P1;durP1;ratioP1;P2;durP2;ratioP2
70866;SDS011;58487;53.474;49.470;2023-04-10T00:00:03;19.15;;;7.80;;
70866;SDS011;58487;53.474;49.470;2023-04-10T00:02:29;24.70;;;7.17;;
70866;SDS011;58487;53.474;49.470;2023-04-10T00:04:55;20.25;;;7.85;;
70866;SDS011;58487;53.474;49.470;2023-04-10T00:07:21;17.73;;;7.70;;
70866;SDS011;58487;53.474;49.470;2023-04-10T00:09:47;17.00;;;7.53;;
70866;SDS011;58487;53.474;49.470;2023-04-10T00:12:13;16.92;;;7.78;;
70866;SDS011;58487;53.474;49.470;2023-04-10T00:14:40;17.43;;;8.03;;
70866;SDS011;58487;53.474;49.470;2023-04-10T00:17:06;16.77;;;7.40;;
70866;SDS011;58487;53.474;49.470;2023-04-10T00:19:32;21.10;;;8.10;;
70866;SDS011;58487;53.474;49.470;2023-04-10T00:21:58;19.55;;;7.53;;
70866;SDS011;58487;53.474;49.470;2023-04-10T00:24:24;15.50;;;7.40;;
70866;SDS011;58487;53.474;49.470;2023-04-10T00:26:50;17.17;;;8.27;;
70866;SDS011;58487;53.474;49.470;2023-04-10T00:29:16;23.40;;;8.50;;
70866;SDS011;58487;53.474;49.470;2023-04-10T00:31:42;18.20;;;8.15;;
70866;SDS011;58487;53.474;49.470;2023-04-10T00:34:08;19.10;;;8.00;;
70866;SDS011;58487;53.474;49.470;2023-04-10T00:36:34;19.60;;;7.63;;
70866;SDS011;58487;53.474;49.470;2023-04-10T00:39:00;21.85;;;8.20;;
70866;SDS011;58487;53.474;49.470;2023-04-10T00:41:26;20.67;;;8.63;;
70866;SDS011;58487;53.474;49.470;2023-04-10T00:43:54;23.55;;;8.65;;
70866;SDS011;58487;53.474;49.470;2023-04-10T00:46:24;22.38;;;8.95;;
70866;SDS011;58487;53.474;49.470;2023-04-10T00:48:50;25.67;;;8.97;;
70866;SDS011;58487;53.474;49.470;2023-04-10T00:51:17;20.58;;;8.35;;
70866;SDS011;58487;53.474;49.470;2023-04-10T00:53:48;18.70;;;8.38;;
70866;SDS011;58487;53.474;49.470;2023-04-10T00:56:15;24.63;;;8.77;;
70866;SDS011;58487;53.474;49.470;2023-04-10T00:58:48;22.80;;;8.05;;
70866;SDS011;58487;53.474;49.470;2023-04-10T01:01:14;26.20;;;8.93;;
70866;SDS011;58487;53.474;49.470;2023-04-10T01:03:40;19.88;;;8.60;;
70866;SDS011;58487;53.474;49.470;2023-04-10T01:08:59;19.65;;;7.78;;
70866;SDS011;58487;53.474;49.470;2023-04-10T01:17:22;21.88;;;8.00;;
70866;SDS011;58487;53.474;49.470;2023-04-10T01:20:09;20.13;;;8.23;;
70866;SDS011;58487;53.474;49.470;2023-04-10T01:31:03;22.17;;;9.23;;
70866;SDS011;58487;53.474;49.470;2023-04-10T01:33:37;15.98;;;6.80;;
70866;SDS011;58487;53.474;49.470;2023-04-10T01:36:05;16.58;;;6.82;;
70866;SDS011;58487;53.474;49.470;2023-04-10T01:38:32;18.25;;;7.50;;
70866;SDS011;58487;53.474;49.470;2023-04-10T01:41:00;17.87;;;7.20;;
70866;SDS011;58487;53.474;49.470;2023-04-10T01:43:27;19.58;;;8.00;;
70866;SDS011;58487;53.474;49.470;2023-04-10T01:45:55;19.35;;;7.72;;
70866;SDS011;58487;53.474;49.470;2023-04-10T01:48:22;20.88;;;7.82;;
70866;SDS011;58487;53.474;49.470;2023-04-10T01:50:50;18.73;;;7.93;;
70866;SDS011;58487;53.474;49.470;2023-04-10T01:53:17;19.27;;;7.80;;
70866;SDS011;58487;53.474;49.470;2023-04-10T01:55:44;14.98;;;7.13;;
70866;SDS011;58487;53.474;49.470;2023-04-10T01:58:17;21.52;;;7.15;;
70866;SDS011;58487;53.474;49.470;2023-04-10T02:00:43;17.02;;;7.53;;
70866;SDS011;58487;53.474;49.470;2023-04-10T02:03:09;18.20;;;6.83;;
70866;SDS011;58487;53.474;49.470;2023-04-10T02:05:47;20.48;;;7.47;;
70866;SDS011;58487;53.474;49.470;2023-04-10T02:08:17;17.55;;;7.07;;
70866;SDS011;58487;53.474;49.470;2023-04-10T02:10:52;19.88;;;7.68;;
70866;SDS011;58487;53.474;49.470;2023-04-10T02:13:22;21.80;;;7.45;;
70866;SDS011;58487;53.474;49.470;2023-04-10T02:15:52;17.83;;;7.07;;
70866;SDS011;58487;53.474;49.470;2023-04-10T02:18:20;19.60;;;7.28;;
70866;SDS011;58487;53.474;49.470;2023-04-10T02:20:47;21.42;;;7.90;;
70866;SDS011;58487;53.474;49.470;2023-04-10T02:23:16;18.40;;;8.27;;
70866;SDS011;58487;53.474;49.470;2023-04-10T02:25:44;25.00;;;7.97;;
70866;SDS011;58487;53.474;49.470;2023-04-10T02:28:10;18.80;;;8.30;;
70866;SDS011;58487;53.474;49.470;2023-04-10T02:30:36;19.02;;;8.30;;
70866;SDS011;58487;53.474;49.470;2023-04-10T02:33:03;19.73;;;8.00;;
70866;SDS011;58487;53.474;49.470;2023-04-10T02:35:29;17.83;;;8.20;;
70866;SDS011;58487;53.474;49.470;2023-04-10T02:37:56;25.58;;;8.95;;
70866;SDS011;58487;53.474;49.470;2023-04-10T02:40:22;24.77;;;8.80;;
70866;SDS011;58487;53.474;49.470;2023-04-10T02:42:48;22.13;;;8.52;;
70866;SDS011;58487;53.474;49.470;2023-04-10T02:45:14;20.45;;;7.78;;
70866;SDS011;58487;53.474;49.470;2023-04-10T02:47:40;20.92;;;8.65;;
70866;SDS011;58487;53.474;49.470;2023-04-10T02:50:06;21.08;;;8.82;;
70866;SDS011;58487;53.474;49.470;2023-04-10T02:52:33;23.80;;;9.80;;
70866;SDS011;58487;53.474;49.470;2023-04-10T02:54:59;21.77;;;8.45;;
70866;SDS011;58487;53.474;49.470;2023-04-10T02:57:30;22.00;;;8.75;;
70866;SDS011;58487;53.474;49.470;2023-04-10T02:59:56;20.25;;;8.32;;
70866;SDS011;58487;53.474;49.470;2023-04-10T03:02:22;23.27;;;8.40;;
70866;SDS011;58487;53.474;49.470;2023-04-10T03:04:48;27.17;;;8.63;;
70866;SDS011;58487;53.474;49.470;2023-04-10T03:07:14;22.23;;;8.57;;
70866;SDS011;58487;53.474;49.470;2023-04-10T03:09:41;21.27;;;8.15;;
70866;SDS011;58487;53.474;49.470;2023-04-10T03:12:07;22.10;;;7.75;;
70866;SDS011;58487;53.474;49.470;2023-04-10T03:14:33;30.60;;;8.70;;
70866;SDS011;58487;53.474;49.470;2023-04-10T03:16:59;26.20;;;9.15;;
70866;SDS011;58487;53.474;49.470;2023-04-10T03:19:25;28.48;;;9.70;;
70866;SDS011;58487;53.474;49.470;2023-04-10T03:21:51;25.77;;;9.90;;
70866;SDS011;58487;53.474;49.470;2023-04-10T03:24:17;24.30;;;9.23;;
70866;SDS011;58487;53.474;49.470;2023-04-10T03:26:43;28.27;;;10.07;;
70866;SDS011;58487;53.474;49.470;2023-04-10T03:29:10;21.58;;;9.25;;
70866;SDS011;58487;53.474;49.470;2023-04-10T03:31:36;24.77;;;9.55;;
70866;SDS011;58487;53.474;49.470;2023-04-10T03:34:02;25.85;;;9.65;;
70866;SDS011;58487;53.474;49.470;2023-04-10T03:36:28;33.57;;;9.87;;
70866;SDS011;58487;53.474;49.470;2023-04-10T03:38:54;24.23;;;9.75;;
70866;SDS011;58487;53.474;49.470;2023-04-10T03:41:20;22.00;;;8.80;;
70866;SDS011;58487;53.474;49.470;2023-04-10T03:43:49;25.00;;;10.40;;
70866;SDS011;58487;53.474;49.470;2023-04-10T03:46:15;27.55;;;9.90;;
70866;SDS011;58487;53.474;49.470;2023-04-10T03:48:41;27.73;;;9.73;;
70866;SDS011;58487;53.474;49.470;2023-04-10T03:51:07;19.25;;;8.70;;
70866;SDS011;58487;53.474;49.470;2023-04-10T03:53:33;21.00;;;8.90;;
70866;SDS011;58487;53.474;49.470;2023-04-10T03:56:01;22.52;;;8.70;;
70866;SDS011;58487;53.474;49.470;2023-04-10T03:58:33;19.35;;;7.47;;
70866;SDS011;58487;53.474;49.470;2023-04-10T04:00:59;17.13;;;6.67;;
70866;SDS011;58487;53.474;49.470;2023-04-10T04:03:25;15.65;;;6.93;;
70866;SDS011;58487;53.474;49.470;2023-04-10T04:05:51;17.50;;;7.32;;
70866;SDS011;58487;53.474;49.470;2023-04-10T04:08:17;20.90;;;7.97;;
70866;SDS011;58487;53.474;49.470;2023-04-10T04:10:43;15.57;;;6.93;;
70866;SDS011;58487;53.474;49.470;2023-04-10T04:13:09;13.77;;;6.63;;
70866;SDS011;58487;53.474;49.470;2023-04-10T04:15:35;14.75;;;7.18;;
70866;SDS011;58487;53.474;49.470;2023-04-10T04:18:01;30.10;;;13.20;;
70866;SDS011;58487;53.474;49.470;2023-04-10T04:20:27;18.20;;;7.75;;
70866;SDS011;58487;53.474;49.470;2023-04-10T04:22:53;21.33;;;8.63;;
70866;SDS011;58487;53.474;49.470;2023-04-10T04:25:19;21.35;;;7.82;;
70866;SDS011;58487;53.474;49.470;2023-04-10T04:27:45;17.60;;;7.47;;
70866;SDS011;58487;53.474;49.470;2023-04-10T04:30:11;17.73;;;8.25;;
70866;SDS011;58487;53.474;49.470;2023-04-10T04:32:37;14.93;;;7.30;;
70866;SDS011;58487;53.474;49.470;2023-04-10T04:35:03;16.83;;;7.53;;
70866;SDS011;58487;53.474;49.470;2023-04-10T04:37:30;32.78;;;12.93;;
70866;SDS011;58487;53.474;49.470;2023-04-10T04:39:56;73.60;;;33.22;;
70866;SDS011;58487;53.474;49.470;2023-04-10T04:42:22;22.52;;;8.98;;
70866;SDS011;58487;53.474;49.470;2023-04-10T04:44:48;19.77;;;8.50;;
70866;SDS011;58487;53.474;49.470;2023-04-10T04:47:14;17.93;;;7.50;;
70866;SDS011;58487;53.474;49.470;2023-04-10T04:49:41;17.98;;;7.65;;
70866;SDS011;58487;53.474;49.470;2023-04-10T04:52:07;19.25;;;7.78;;
70866;SDS011;58487;53.474;49.470;2023-04-10T04:54:36;16.08;;;7.53;;
70866;SDS011;58487;53.474;49.470;2023-04-10T04:57:07;19.93;;;8.57;;
70866;SDS011;58487;53.474;49.470;2023-04-10T04:59:34;17.42;;;7.85;;
70866;SDS011;58487;53.474;49.470;2023-04-10T05:02:00;17.83;;;7.75;;
70866;SDS011;58487;53.474;49.470;2023-04-10T05:04:26;18.55;;;7.35;;
70866;SDS011;58487;53.474;49.470;2023-04-10T05:06:51;15.18;;;7.15;;
70866;SDS011;58487;53.474;49.470;2023-04-10T05:09:17;16.10;;;7.30;;
70866;SDS011;58487;53.474;49.470;2023-04-10T05:11:43;18.15;;;7.32;;
70866;SDS011;58487;53.474;49.470;2023-04-10T05:14:09;19.95;;;8.77;;
70866;SDS011;58487;53.474;49.470;2023-04-10T05:16:35;18.08;;;8.55;;
70866;SDS011;58487;53.474;49.470;2023-04-10T05:19:01;15.80;;;7.70;;
70866;SDS011;58487;53.474;49.470;2023-04-10T05:21:27;16.98;;;7.78;;
70866;SDS011;58487;53.474;49.470;2023-04-10T05:23:53;17.63;;;7.93;;
70866;SDS011;58487;53.474;49.470;2023-04-10T05:26:19;15.60;;;8.23;;
70866;SDS011;58487;53.474;49.470;2023-04-10T05:28:45;17.70;;;7.90;;
70866;SDS011;58487;53.474;49.470;2023-04-10T05:31:11;20.83;;;8.07;;
70866;SDS011;58487;53.474;49.470;2023-04-10T05:33:37;17.58;;;7.97;;
70866;SDS011;58487;53.474;49.470;2023-04-10T05:36:03;16.08;;;8.32;;
70866;SDS011;58487;53.474;49.470;2023-04-10T05:38:30;16.52;;;7.93;;
70866;SDS011;58487;53.474;49.470;2023-04-10T05:40:56;19.10;;;7.90;;
70866;SDS011;58487;53.474;49.470;2023-04-10T05:43:22;17.80;;;8.27;;
70866;SDS011;58487;53.474;49.470;2023-04-10T05:45:48;16.23;;;7.72;;
70866;SDS011;58487;53.474;49.470;2023-04-10T05:48:14;18.52;;;8.43;;
70866;SDS011;58487;53.474;49.470;2023-04-10T05:50:40;18.63;;;8.18;;
70866;SDS011;58487;53.474;49.470;2023-04-10T05:53:09;18.07;;;7.73;;
70866;SDS011;58487;53.474;49.470;2023-04-10T05:55:37;19.83;;;8.27;;
70866;SDS011;58487;53.474;49.470;2023-04-10T05:58:08;16.88;;;8.32;;
70866;SDS011;58487;53.474;49.470;2023-04-10T06:00:34;19.88;;;9.20;;
70866;SDS011;58487;53.474;49.470;2023-04-10T06:03:04;19.13;;;8.65;;
70866;SDS011;58487;53.474;49.470;2023-04-10T06:05:30;22.02;;;8.90;;
70866;SDS011;58487;53.474;49.470;2023-04-10T06:07:56;22.73;;;8.37;;
70866;SDS011;58487;53.474;49.470;2023-04-10T06:10:22;17.63;;;9.27;;
70866;SDS011;58487;53.474;49.470;2023-04-10T06:12:48;46.97;;;20.58;;
70866;SDS011;58487;53.474;49.470;2023-04-10T06:15:14;28.02;;;11.30;;
70866;SDS011;58487;53.474;49.470;2023-04-10T06:17:41;17.20;;;9.10;;
70866;SDS011;58487;53.474;49.470;2023-04-10T06:20:10;17.35;;;8.60;;
70866;SDS011;58487;53.474;49.470;2023-04-10T06:22:36;20.63;;;8.52;;
70866;SDS011;58487;53.474;49.470;2023-04-10T06:25:03;18.60;;;8.88;;
70866;SDS011;58487;53.474;49.470;2023-04-10T06:27:29;20.88;;;8.50;;
70866;SDS011;58487;53.474;49.470;2023-04-10T06:29:55;17.47;;;8.37;;
70866;SDS011;58487;53.474;49.470;2023-04-10T06:32:21;24.33;;;8.20;;
70866;SDS011;58487;53.474;49.470;2023-04-10T06:34:47;16.83;;;8.07;;
70866;SDS011;58487;53.474;49.470;2023-04-10T06:37:13;14.85;;;7.50;;
70866;SDS011;58487;53.474;49.470;2023-04-10T06:39:40;20.80;;;8.70;;
70866;SDS011;58487;53.474;49.470;2023-04-10T06:42:06;22.05;;;8.57;;
70866;SDS011;58487;53.474;49.470;2023-04-10T06:44:32;20.10;;;8.45;;
70866;SDS011;58487;53.474;49.470;2023-04-10T06:46:58;17.25;;;7.93;;
70866;SDS011;58487;53.474;49.470;2023-04-10T06:49:24;44.40;;;18.02;;
70866;SDS011;58487;53.474;49.470;2023-04-10T06:51:50;22.23;;;9.17;;
70866;SDS011;58487;53.474;49.470;2023-04-10T06:54:16;16.08;;;7.65;;
70866;SDS011;58487;53.474;49.470;2023-04-10T06:56:42;16.42;;;7.57;;
70866;SDS011;58487;53.474;49.470;2023-04-10T06:59:13;17.33;;;8.00;;
70866;SDS011;58487;53.474;49.470;2023-04-10T07:01:40;21.80;;;9.85;;
70866;SDS011;58487;53.474;49.470;2023-04-10T07:04:06;17.97;;;8.13;;
70866;SDS011;58487;53.474;49.470;2023-04-10T07:06:32;18.73;;;8.35;;
70866;SDS011;58487;53.474;49.470;2023-04-10T07:09:02;18.00;;;8.15;;
70866;SDS011;58487;53.474;49.470;2023-04-10T07:11:28;20.63;;;9.25;;
70866;SDS011;58487;53.474;49.470;2023-04-10T07:13:54;21.33;;;9.88;;
70866;SDS011;58487;53.474;49.470;2023-04-10T07:16:22;19.73;;;10.53;;
70866;SDS011;58487;53.474;49.470;2023-04-10T07:18:49;27.20;;;10.75;;
70866;SDS011;58487;53.474;49.470;2023-04-10T07:21:15;28.60;;;11.05;;
70866;SDS011;58487;53.474;49.470;2023-04-10T07:23:41;22.15;;;11.60;;
70866;SDS011;58487;53.474;49.470;2023-04-10T07:26:07;29.35;;;12.05;;
70866;SDS011;58487;53.474;49.470;2023-04-10T07:28:33;30.87;;;12.97;;
70866;SDS011;58487;53.474;49.470;2023-04-10T07:30:59;42.60;;;16.25;;
70866;SDS011;58487;53.474;49.470;2023-04-10T07:33:25;32.67;;;14.25;;
70866;SDS011;58487;53.474;49.470;2023-04-10T07:35:51;29.85;;;14.50;;
70866;SDS011;58487;53.474;49.470;2023-04-10T07:38:17;34.65;;;15.70;;
70866;SDS011;58487;53.474;49.470;2023-04-10T07:40:43;35.87;;;14.70;;
70866;SDS011;58487;53.474;49.470;2023-04-10T07:43:10;31.38;;;15.32;;
70866;SDS011;58487;53.474;49.470;2023-04-10T07:45:36;30.00;;;15.35;;
70866;SDS011;58487;53.474;49.470;2023-04-10T07:48:02;25.08;;;12.45;;
70866;SDS011;58487;53.474;49.470;2023-04-10T07:50:30;19.83;;;8.60;;
70866;SDS011;58487;53.474;49.470;2023-04-10T07:52:56;22.17;;;10.37;;
70866;SDS011;58487;53.474;49.470;2023-04-10T07:55:23;18.35;;;8.93;;
70866;SDS011;58487;53.474;49.470;2023-04-10T07:57:54;20.77;;;11.05;;
70866;SDS011;58487;53.474;49.470;2023-04-10T08:00:20;18.65;;;8.13;;
70866;SDS011;58487;53.474;49.470;2023-04-10T08:02:46;24.50;;;11.73;;
70866;SDS011;58487;53.474;49.470;2023-04-10T08:05:12;20.67;;;9.10;;
70866;SDS011;58487;53.474;49.470;2023-04-10T08:07:38;25.42;;;10.20;;
70866;SDS011;58487;53.474;49.470;2023-04-10T08:10:04;20.27;;;8.60;;
70866;SDS011;58487;53.474;49.470;2023-04-10T08:12:32;19.58;;;8.15;;
70866;SDS011;58487;53.474;49.470;2023-04-10T08:14:59;16.92;;;8.80;;
70866;SDS011;58487;53.474;49.470;2023-04-10T08:17:24;19.50;;;10.20;;
70866;SDS011;58487;53.474;49.470;2023-04-10T08:19:50;17.13;;;8.55;;
70866;SDS011;58487;53.474;49.470;2023-04-10T08:22:16;16.02;;;7.32;;
70866;SDS011;58487;53.474;49.470;2023-04-10T08:24:42;24.25;;;9.75;;
70866;SDS011;58487;53.474;49.470;2023-04-10T08:27:08;20.33;;;8.90;;
70866;SDS011;58487;53.474;49.470;2023-04-10T08:29:34;17.10;;;7.83;;
70866;SDS011;58487;53.474;49.470;2023-04-10T08:32:01;15.30;;;7.68;;
70866;SDS011;58487;53.474;49.470;2023-04-10T08:34:27;13.80;;;5.80;;
70866;SDS011;58487;53.474;49.470;2023-04-10T08:36:53;17.90;;;8.55;;
70866;SDS011;58487;53.474;49.470;2023-04-10T08:39:19;18.20;;;8.05;;
70866;SDS011;58487;53.474;49.470;2023-04-10T08:41:45;20.77;;;7.73;;
70866;SDS011;58487;53.474;49.470;2023-04-10T08:44:11;16.63;;;7.95;;
70866;SDS011;58487;53.474;49.470;2023-04-10T08:46:38;19.25;;;7.75;;
70866;SDS011;58487;53.474;49.470;2023-04-10T08:49:09;14.68;;;7.50;;
70866;SDS011;58487;53.474;49.470;2023-04-10T08:51:42;16.90;;;6.25;;
70866;SDS011;58487;53.474;49.470;2023-04-10T08:54:17;11.53;;;5.70;;
70866;SDS011;58487;53.474;49.470;2023-04-10T08:56:46;17.13;;;7.28;;
70866;SDS011;58487;53.474;49.470;2023-04-10T08:59:21;15.48;;;7.55;;
70866;SDS011;58487;53.474;49.470;2023-04-10T09:01:47;13.75;;;7.30;;
70866;SDS011;58487;53.474;49.470;2023-04-10T09:04:13;14.57;;;7.22;;
70866;SDS011;58487;53.474;49.470;2023-04-10T09:06:41;21.13;;;8.30;;
70866;SDS011;58487;53.474;49.470;2023-04-10T09:09:07;15.40;;;7.88;;
70866;SDS011;58487;53.474;49.470;2023-04-10T09:14:21;15.93;;;6.93;;
70866;SDS011;58487;53.474;49.470;2023-04-10T09:16:49;13.07;;;5.97;;
70866;SDS011;58487;53.474;49.470;2023-04-10T09:19:29;16.23;;;6.40;;
70866;SDS011;58487;53.474;49.470;2023-04-10T09:21:56;15.18;;;7.30;;
70866;SDS011;58487;53.474;49.470;2023-04-10T09:24:22;14.73;;;7.35;;
70866;SDS011;58487;53.474;49.470;2023-04-10T09:26:48;16.80;;;7.05;;
70866;SDS011;58487;53.474;49.470;2023-04-10T09:29:14;13.98;;;7.75;;
70866;SDS011;58487;53.474;49.470;2023-04-10T09:31:43;12.67;;;7.17;;
70866;SDS011;58487;53.474;49.470;2023-04-10T09:34:16;13.23;;;7.40;;
70866;SDS011;58487;53.474;49.470;2023-04-10T09:36:51;17.63;;;7.78;;
70866;SDS011;58487;53.474;49.470;2023-04-10T09:39:19;14.68;;;8.27;;
70866;SDS011;58487;53.474;49.470;2023-04-10T09:41:46;15.73;;;8.40;;
70866;SDS011;58487;53.474;49.470;2023-04-10T09:44:17;17.93;;;7.43;;
70866;SDS011;58487;53.474;49.470;2023-04-10T09:46:52;16.60;;;7.93;;
70866;SDS011;58487;53.474;49.470;2023-04-10T09:49:19;15.00;;;7.80;;
70866;SDS011;58487;53.474;49.470;2023-04-10T09:51:45;14.77;;;8.05;;
70866;SDS011;58487;53.474;49.470;2023-04-10T09:54:11;15.32;;;8.10;;
70866;SDS011;58487;53.474;49.470;2023-04-10T09:56:38;14.37;;;6.93;;
70866;SDS011;58487;53.474;49.470;2023-04-10T09:59:09;14.13;;;7.43;;
70866;SDS011;58487;53.474;49.470;2023-04-10T10:01:38;15.40;;;7.72;;
70866;SDS011;58487;53.474;49.470;2023-04-10T10:04:05;14.40;;;7.80;;
70866;SDS011;58487;53.474;49.470;2023-04-10T10:06:32;11.35;;;5.93;;
70866;SDS011;58487;53.474;49.470;2023-04-10T10:09:00;11.07;;;6.60;;
70866;SDS011;58487;53.474;49.470;2023-04-10T10:11:28;11.65;;;7.10;;
70866;SDS011;58487;53.474;49.470;2023-04-10T10:13:58;15.02;;;7.30;;
70866;SDS011;58487;53.474;49.470;2023-04-10T10:16:31;11.90;;;6.53;;
70866;SDS011;58487;53.474;49.470;2023-04-10T10:21:46;13.37;;;6.50;;
70866;SDS011;58487;53.474;49.470;2023-04-10T10:24:12;9.80;;;5.53;;
70866;SDS011;58487;53.474;49.470;2023-04-10T10:26:40;9.70;;;5.50;;
70866;SDS011;58487;53.474;49.470;2023-04-10T10:29:08;13.30;;;7.28;;
70866;SDS011;58487;53.474;49.470;2023-04-10T10:31:36;11.10;;;7.25;;
70866;SDS011;58487;53.474;49.470;2023-04-10T10:34:03;11.63;;;8.00;;
70866;SDS011;58487;53.474;49.470;2023-04-10T10:36:32;11.95;;;6.63;;
70866;SDS011;58487;53.474;49.470;2023-04-10T10:44:36;8.90;;;5.53;;
70866;SDS011;58487;53.474;49.470;2023-04-10T10:47:18;12.30;;;6.20;;
70866;SDS011;58487;53.474;49.470;2023-04-10T10:57:55;13.32;;;5.88;;
70866;SDS011;58487;53.474;49.470;2023-04-10T11:00:23;13.00;;;6.47;;
70866;SDS011;58487;53.474;49.470;2023-04-10T11:05:47;11.15;;;4.97;;
70866;SDS011;58487;53.474;49.470;2023-04-10T11:13:41;10.17;;;5.47;;
70866;SDS011;58487;53.474;49.470;2023-04-10T11:21:27;8.10;;;5.13;;
70866;SDS011;58487;53.474;49.470;2023-04-10T11:31:54;9.48;;;4.72;;
70866;SDS011;58487;53.474;49.470;2023-04-10T11:34:22;9.05;;;5.10;;
70866;SDS011;58487;53.474;49.470;2023-04-10T11:36:48;9.73;;;5.10;;
70866;SDS011;58487;53.474;49.470;2023-04-10T11:39:15;9.03;;;5.37;;
70866;SDS011;58487;53.474;49.470;2023-04-10T11:41:45;8.30;;;5.20;;
70866;SDS011;58487;53.474;49.470;2023-04-10T11:44:12;10.10;;;5.32;;
70866;SDS011;58487;53.474;49.470;2023-04-10T11:46:41;10.38;;;5.70;;
70866;SDS011;58487;53.474;49.470;2023-04-10T11:49:11;10.80;;;5.57;;
70866;SDS011;58487;53.474;49.470;2023-04-10T11:51:43;7.73;;;5.13;;
70866;SDS011;58487;53.474;49.470;2023-04-10T11:54:23;10.55;;;5.60;;
70866;SDS011;58487;53.474;49.470;2023-04-10T11:56:57;9.57;;;5.20;;
70866;SDS011;58487;53.474;49.470;2023-04-10T11:59:33;8.57;;;4.68;;
70866;SDS011;58487;53.474;49.470;2023-04-10T12:02:04;8.00;;;4.97;;
70866;SDS011;58487;53.474;49.470;2023-04-10T12:04:31;9.53;;;4.90;;
70866;SDS011;58487;53.474;49.470;2023-04-10T12:06:57;7.60;;;4.90;;
70866;SDS011;58487;53.474;49.470;2023-04-10T12:09:24;8.20;;;4.88;;
70866;SDS011;58487;53.474;49.470;2023-04-10T12:11:51;11.48;;;4.50;;
70866;SDS011;58487;53.474;49.470;2023-04-10T12:14:34;6.78;;;4.53;;
70866;SDS011;58487;53.474;49.470;2023-04-10T12:17:05;8.03;;;4.50;;
70866;SDS011;58487;53.474;49.470;2023-04-10T12:19:33;8.38;;;4.63;;
70866;SDS011;58487;53.474;49.470;2023-04-10T12:21:59;8.70;;;4.30;;
70866;SDS011;58487;53.474;49.470;2023-04-10T12:24:46;8.00;;;4.25;;
70866;SDS011;58487;53.474;49.470;2023-04-10T12:27:24;9.93;;;4.40;;
70866;SDS011;58487;53.474;49.470;2023-04-10T12:29:54;10.07;;;4.27;;
70866;SDS011;58487;53.474;49.470;2023-04-10T12:32:21;8.00;;;4.13;;
70866;SDS011;58487;53.474;49.470;2023-04-10T12:34:52;7.63;;;4.20;;
70866;SDS011;58487;53.474;49.470;2023-04-10T12:37:21;11.02;;;4.18;;
70866;SDS011;58487;53.474;49.470;2023-04-10T12:39:48;7.13;;;4.63;;
70866;SDS011;58487;53.474;49.470;2023-04-10T12:42:15;7.77;;;4.20;;
70866;SDS011;58487;53.474;49.470;2023-04-10T12:44:52;9.10;;;4.35;;
70866;SDS011;58487;53.474;49.470;2023-04-10T12:47:20;7.72;;;4.75;;
70866;SDS011;58487;53.474;49.470;2023-04-10T12:52:32;7.82;;;4.93;;
70866;SDS011;58487;53.474;49.470;2023-04-10T12:55:15;9.63;;;5.10;;
70866;SDS011;58487;53.474;49.470;2023-04-10T12:57:48;7.78;;;4.82;;
70866;SDS011;58487;53.474;49.470;2023-04-10T13:00:17;9.55;;;5.40;;
70866;SDS011;58487;53.474;49.470;2023-04-10T13:02:44;9.07;;;5.13;;
70866;SDS011;58487;53.474;49.470;2023-04-10T13:05:12;9.40;;;4.93;;
70866;SDS011;58487;53.474;49.470;2023-04-10T13:07:39;8.37;;;4.17;;
70866;SDS011;58487;53.474;49.470;2023-04-10T13:10:05;8.25;;;4.40;;
70866;SDS011;58487;53.474;49.470;2023-04-10T13:12:33;8.73;;;4.07;;
70866;SDS011;58487;53.474;49.470;2023-04-10T13:15:00;8.27;;;3.80;;
70866;SDS011;58487;53.474;49.470;2023-04-10T13:17:27;6.75;;;3.95;;
70866;SDS011;58487;53.474;49.470;2023-04-10T13:19:53;6.30;;;3.60;;
70866;SDS011;58487;53.474;49.470;2023-04-10T13:22:19;8.20;;;3.78;;
70866;SDS011;58487;53.474;49.470;2023-04-10T13:24:46;7.30;;;3.60;;
70866;SDS011;58487;53.474;49.470;2023-04-10T13:27:12;7.50;;;3.67;;
70866;SDS011;58487;53.474;49.470;2023-04-10T13:29:38;6.82;;;3.85;;
70866;SDS011;58487;53.474;49.470;2023-04-10T13:32:05;7.17;;;3.30;;
70866;SDS011;58487;53.474;49.470;2023-04-10T13:34:31;7.47;;;3.00;;
70866;SDS011;58487;53.474;49.470;2023-04-10T13:36:58;6.25;;;3.40;;
70866;SDS011;58487;53.474;49.470;2023-04-10T13:39:25;7.38;;;3.85;;
70866;SDS011;58487;53.474;49.470;2023-04-10T13:41:52;6.60;;;3.72;;
70866;SDS011;58487;53.474;49.470;2023-04-10T13:44:18;6.40;;;3.40;;
70866;SDS011;58487;53.474;49.470;2023-04-10T13:46:44;6.63;;;3.58;;
70866;SDS011;58487;53.474;49.470;2023-04-10T13:49:11;7.18;;;3.42;;
70866;SDS011;58487;53.474;49.470;2023-04-10T13:51:41;9.75;;;3.50;;
70866;SDS011;58487;53.474;49.470;2023-04-10T13:54:10;7.50;;;3.53;;
70866;SDS011;58487;53.474;49.470;2023-04-10T13:56:36;9.00;;;3.73;;
70866;SDS011;58487;53.474;49.470;2023-04-10T13:59:08;6.55;;;3.53;;
70866;SDS011;58487;53.474;49.470;2023-04-10T14:01:35;7.53;;;3.47;;
70866;SDS011;58487;53.474;49.470;2023-04-10T14:04:01;6.43;;;3.40;;
70866;SDS011;58487;53.474;49.470;2023-04-10T14:06:27;7.28;;;3.33;;
70866;SDS011;58487;53.474;49.470;2023-04-10T14:08:53;6.10;;;3.53;;
70866;SDS011;58487;53.474;49.470;2023-04-10T14:11:19;5.85;;;3.22;;
70866;SDS011;58487;53.474;49.470;2023-04-10T14:13:46;8.35;;;3.90;;
70866;SDS011;58487;53.474;49.470;2023-04-10T14:16:12;6.82;;;3.78;;
70866;SDS011;58487;53.474;49.470;2023-04-10T14:18:38;11.48;;;3.80;;
70866;SDS011;58487;53.474;49.470;2023-04-10T14:21:04;9.00;;;3.63;;
70866;SDS011;58487;53.474;49.470;2023-04-10T14:23:31;6.55;;;3.45;;
70866;SDS011;58487;53.474;49.470;2023-04-10T14:25:57;8.82;;;3.75;;
70866;SDS011;58487;53.474;49.470;2023-04-10T14:28:23;8.52;;;4.15;;
70866;SDS011;58487;53.474;49.470;2023-04-10T14:30:50;7.80;;;4.10;;
70866;SDS011;58487;53.474;49.470;2023-04-10T14:33:17;7.87;;;4.20;;
70866;SDS011;58487;53.474;49.470;2023-04-10T14:35:44;7.70;;;4.30;;
70866;SDS011;58487;53.474;49.470;2023-04-10T14:38:14;7.20;;;3.70;;
70866;SDS011;58487;53.474;49.470;2023-04-10T14:40:40;9.10;;;3.92;;
70866;SDS011;58487;53.474;49.470;2023-04-10T14:43:07;9.05;;;3.97;;
70866;SDS011;58487;53.474;49.470;2023-04-10T14:45:33;8.90;;;4.30;;
70866;SDS011;58487;53.474;49.470;2023-04-10T14:47:59;11.43;;;3.28;;
70866;SDS011;58487;53.474;49.470;2023-04-10T14:50:32;7.93;;;3.88;;
70866;SDS011;58487;53.474;49.470;2023-04-10T14:52:58;7.82;;;4.00;;
70866;SDS011;58487;53.474;49.470;2023-04-10T14:55:25;8.63;;;3.80;;
70866;SDS011;58487;53.474;49.470;2023-04-10T14:57:58;8.87;;;4.17;;
70866;SDS011;58487;53.474;49.470;2023-04-10T15:00:24;13.45;;;5.85;;
70866;SDS011;58487;53.474;49.470;2023-04-10T15:02:50;13.80;;;4.65;;
70866;SDS011;58487;53.474;49.470;2023-04-10T15:05:16;18.50;;;4.00;;
70866;SDS011;58487;53.474;49.470;2023-04-10T15:07:42;10.95;;;4.03;;
70866;SDS011;58487;53.474;49.470;2023-04-10T15:10:08;11.37;;;4.17;;
70866;SDS011;58487;53.474;49.470;2023-04-10T15:12:35;9.43;;;3.92;;
70866;SDS011;58487;53.474;49.470;2023-04-10T15:15:01;8.15;;;3.95;;
70866;SDS011;58487;53.474;49.470;2023-04-10T15:17:27;8.82;;;4.20;;
70866;SDS011;58487;53.474;49.470;2023-04-10T15:19:54;8.95;;;3.88;;
70866;SDS011;58487;53.474;49.470;2023-04-10T15:22:20;9.40;;;4.20;;
70866;SDS011;58487;53.474;49.470;2023-04-10T15:24:46;10.05;;;4.55;;